createdAt,value
2017-06-03T00:01:56.109Z,95454.97
2017-06-03T00:04:23.649Z,95452.02
2017-06-03T00:06:51.213Z,95462.95
2017-06-03T00:09:18.792Z,95464.15
2017-06-03T00:11:46.333Z,95477.88
2017-06-03T00:14:13.875Z,95480.62
2017-06-03T00:16:41.450Z,95478.99
2017-06-03T00:19:08.986Z,95493.54
2017-06-03T00:21:36.537Z,95491.41
2017-06-03T00:24:04.120Z,95482.57
2017-06-03T00:26:31.690Z,95490.21
2017-06-03T00:28:59.229Z,95501.00
2017-06-03T00:31:26.826Z,95498.45
2017-06-03T00:33:54.364Z,95507.26
2017-06-03T00:36:21.901Z,95510.56
2017-06-03T00:38:49.464Z,95526.86
2017-06-03T00:41:16.999Z,95524.50
2017-06-03T00:43:44.529Z,95522.75
2017-06-03T00:46:12.098Z,95532.14
2017-06-03T00:48:39.645Z,95526.11
2017-06-03T00:51:07.193Z,95525.70
2017-06-03T00:53:34.786Z,95530.39
2017-06-03T00:56:02.324Z,95537.63
2017-06-03T00:58:29.866Z,95540.00
2017-06-03T01:00:57.945Z,95535.08
2017-06-03T01:03:25.479Z,95532.33
2017-06-03T01:05:53.017Z,95526.66
2017-06-03T01:08:20.601Z,95525.67
2017-06-03T01:10:48.150Z,95521.75
2017-06-03T01:13:15.685Z,95521.17
2017-06-03T01:15:43.241Z,95527.87
2017-06-03T01:18:10.774Z,95529.42
2017-06-03T01:20:38.313Z,95526.87
2017-06-03T01:23:05.878Z,95534.90
2017-06-03T01:25:33.415Z,95535.27
2017-06-03T01:28:00.942Z,95531.96
2017-06-03T01:30:28.521Z,95518.62
2017-06-03T01:32:56.078Z,95529.19
2017-06-03T01:35:23.655Z,95527.66
2017-06-03T01:37:51.229Z,95522.36
2017-06-03T01:40:18.760Z,95529.05
2017-06-03T01:42:46.288Z,95529.42
2017-06-03T01:45:13.862Z,95520.22
2017-06-03T01:47:41.426Z,95521.58
2017-06-03T01:50:08.972Z,95516.30
2017-06-03T01:52:36.590Z,95518.66
2017-06-03T01:55:04.128Z,95509.42
2017-06-03T01:57:31.661Z,95511.59
2017-06-03T01:59:59.242Z,95504.48
2017-06-03T02:02:26.821Z,95492.89
2017-06-03T02:04:54.361Z,95499.83
2017-06-03T02:07:21.893Z,95495.12
2017-06-03T02:09:49.461Z,95486.23
2017-06-03T02:12:16.996Z,95470.03
2017-06-03T02:14:44.537Z,95469.80
2017-06-03T02:17:12.104Z,95472.69
2017-06-03T02:19:39.629Z,95481.16
2017-06-03T02:22:07.178Z,95484.92
2017-06-03T02:24:34.755Z,95473.17
2017-06-03T02:27:02.302Z,95470.80
2017-06-03T02:29:29.845Z,95480.45
2017-06-03T02:31:57.418Z,95471.20
2017-06-03T02:34:24.958Z,95471.69
2017-06-03T02:36:52.502Z,95462.41
2017-06-03T02:39:20.073Z,95457.52
2017-06-03T02:41:47.610Z,95448.35
2017-06-03T02:44:15.159Z,95432.11
2017-06-03T02:46:42.754Z,95429.91
2017-06-03T02:49:10.294Z,95427.57
2017-06-03T02:51:37.837Z,95428.45
2017-06-03T02:54:05.407Z,95421.10
2017-06-03T02:56:32.941Z,95427.91
2017-06-03T02:59:00.479Z,95427.17
2017-06-03T03:01:28.066Z,95433.97
2017-06-03T03:03:55.651Z,95435.77
2017-06-03T03:06:23.196Z,95438.33
2017-06-03T03:08:50.774Z,95450.00
2017-06-03T03:11:18.333Z,95463.23
2017-06-03T03:13:45.880Z,95465.22
2017-06-03T03:16:13.460Z,95463.96
2017-06-03T03:18:41.003Z,95463.38
2017-06-03T03:21:08.550Z,95465.16
2017-06-03T03:23:36.151Z,95459.08
2017-06-03T03:26:03.693Z,95468.88
2017-06-03T03:28:31.242Z,95463.97
2017-06-03T03:30:58.816Z,95467.70
2017-06-03T03:33:26.400Z,95470.43
2017-06-03T03:35:53.941Z,95472.77
2017-06-03T03:38:21.522Z,95472.20
2017-06-03T03:40:49.071Z,95469.02
2017-06-03T03:43:16.615Z,95459.81
2017-06-03T03:45:44.219Z,95454.73
2017-06-03T03:48:11.778Z,95452.31
2017-06-03T03:50:39.309Z,95455.55
2017-06-03T03:53:06.895Z,95458.05
2017-06-03T03:55:34.435Z,95454.37
2017-06-03T03:58:01.999Z,95459.59
2017-06-03T04:00:29.590Z,95446.66
2017-06-03T04:02:57.134Z,95436.09
2017-06-03T04:05:24.673Z,95455.09
2017-06-03T04:07:52.259Z,95464.09
2017-06-03T04:10:19.794Z,95462.45
2017-06-03T04:12:47.350Z,95461.15
2017-06-03T04:15:15.018Z,95465.74
2017-06-03T04:17:42.557Z,95471.99
2017-06-03T04:20:10.095Z,95469.27
2017-06-03T04:22:37.666Z,95473.58
2017-06-03T04:25:05.223Z,95470.62
2017-06-03T04:27:32.758Z,95471.41
2017-06-03T04:30:00.701Z,95470.64
2017-06-03T04:32:28.318Z,95473.76
2017-06-03T04:34:55.849Z,95466.33
2017-06-03T04:37:23.390Z,95463.56
2017-06-03T04:39:50.969Z,95467.83
2017-06-03T04:42:18.601Z,95473.14
2017-06-03T04:44:46.135Z,95469.67
2017-06-03T04:47:49.361Z,95463.97
2017-06-03T04:50:18.225Z,95463.38
2017-06-03T04:52:45.801Z,95463.17
2017-06-03T04:55:13.418Z,95463.34
2017-06-03T04:57:40.953Z,95467.32
2017-06-03T05:00:08.630Z,95468.07
2017-06-03T05:02:36.209Z,95476.13
2017-06-03T05:05:03.765Z,95480.39
2017-06-03T05:07:31.348Z,95484.33
2017-06-03T05:09:58.879Z,95476.34
2017-06-03T05:12:26.417Z,95481.34
2017-06-03T05:14:53.990Z,95489.78
2017-06-03T05:17:21.526Z,95485.13
2017-06-03T05:19:49.058Z,95492.34
2017-06-03T05:22:16.637Z,95493.12
2017-06-03T05:24:44.174Z,95491.78
2017-06-03T05:27:11.707Z,95489.17
2017-06-03T05:29:39.301Z,95488.41
2017-06-03T05:32:06.974Z,95492.08
2017-06-03T05:34:34.981Z,95499.08
2017-06-03T05:37:02.529Z,95494.30
2017-06-03T05:39:30.112Z,95496.69
2017-06-03T05:41:57.640Z,95495.17
2017-06-03T05:44:25.584Z,95500.30
2017-06-03T05:46:53.171Z,95489.94
2017-06-03T05:49:20.706Z,95491.17
2017-06-03T05:51:48.243Z,95500.73
2017-06-03T05:54:15.816Z,95493.62
2017-06-03T05:56:43.367Z,95497.00
2017-06-03T05:59:10.915Z,95500.45
2017-06-03T06:01:38.480Z,95494.49
2017-06-03T06:04:06.061Z,95493.31
2017-06-03T06:06:33.602Z,95491.97
2017-06-03T06:09:01.194Z,95490.84
2017-06-03T06:11:29.089Z,95485.75
2017-06-03T06:13:56.651Z,95484.16
2017-06-03T06:16:24.295Z,95484.69
2017-06-03T06:18:51.834Z,95474.41
2017-06-03T06:21:19.397Z,95477.45
2017-06-03T06:23:46.969Z,95481.48
2017-06-03T06:26:14.505Z,95477.58
2017-06-03T06:28:42.061Z,95452.11
2017-06-03T06:31:09.649Z,95476.68
2017-06-03T06:33:37.197Z,95476.69
2017-06-03T06:36:04.742Z,95476.42
2017-06-03T06:38:32.324Z,95481.81
2017-06-03T06:40:59.865Z,95474.42
2017-06-03T06:43:27.405Z,95464.77
2017-06-03T06:45:54.992Z,95474.87
2017-06-03T06:48:22.572Z,95472.36
2017-06-03T06:50:50.218Z,95461.61
2017-06-03T06:53:17.827Z,95418.69
2017-06-03T06:55:46.864Z,95402.36
2017-06-03T06:58:14.526Z,95463.23
2017-06-03T07:00:42.171Z,95453.55
2017-06-03T07:03:11.194Z,95458.94
2017-06-03T07:05:38.756Z,95460.61
2017-06-03T07:08:06.607Z,95457.04
2017-06-03T07:10:34.768Z,95466.70
2017-06-03T07:13:03.148Z,95458.40
2017-06-03T07:15:31.162Z,95459.58
2017-06-03T07:17:59.001Z,95463.70
2017-06-03T07:20:26.646Z,95459.50
2017-06-03T07:22:56.861Z,95462.25
2017-06-03T07:25:26.248Z,95461.67
2017-06-03T07:27:53.982Z,95461.06
2017-06-03T07:30:23.290Z,95462.62
2017-06-03T07:32:52.297Z,95461.23
2017-06-03T07:35:22.075Z,95464.56
2017-06-03T07:37:50.653Z,95462.73
2017-06-03T07:40:18.547Z,95462.45
2017-06-03T07:42:46.143Z,95457.89
2017-06-03T07:45:13.983Z,95457.97
2017-06-03T07:47:42.773Z,95461.34
2017-06-03T07:50:11.143Z,95461.45
2017-06-03T07:52:44.711Z,95460.19
2017-06-03T07:55:13.032Z,95458.34
2017-06-03T07:57:42.283Z,95458.72
2017-06-03T08:00:13.376Z,95456.81
2017-06-03T08:02:43.524Z,95461.34
2017-06-03T08:05:11.993Z,95425.97
2017-06-03T08:07:40.362Z,95464.84
2017-06-03T08:10:07.909Z,95458.20
2017-06-03T08:12:35.471Z,95452.61
2017-06-03T08:15:04.046Z,95456.73
2017-06-03T08:17:31.593Z,95448.57
2017-06-03T08:19:59.162Z,95454.33
2017-06-03T08:22:26.750Z,95445.14
2017-06-03T08:24:54.285Z,95447.22
2017-06-03T08:27:22.010Z,95450.27
2017-06-03T08:29:50.004Z,95456.16
2017-06-03T08:32:17.759Z,95448.94
2017-06-03T08:34:45.468Z,95445.52
2017-06-03T08:37:13.304Z,95446.42
2017-06-03T08:39:41.316Z,95447.66
2017-06-03T08:42:08.951Z,95439.84
2017-06-03T08:44:36.570Z,95446.41
2017-06-03T08:47:04.179Z,95444.45
2017-06-03T08:49:31.755Z,95446.30
2017-06-03T08:51:59.744Z,95440.63
2017-06-03T08:54:27.462Z,95447.14
2017-06-03T08:56:55.118Z,95444.47
2017-06-03T08:59:22.692Z,95441.97
2017-06-03T09:01:50.558Z,95439.84
2017-06-03T09:04:18.234Z,95442.94
2017-06-03T09:06:45.811Z,95439.09
2017-06-03T09:09:13.394Z,95440.10
2017-06-03T09:11:45.090Z,95446.57
2017-06-03T09:14:13.624Z,95439.09
2017-06-03T09:19:18.238Z,95435.91
2017-06-03T09:21:45.799Z,95432.32
2017-06-03T09:24:13.385Z,95437.98
2017-06-03T09:26:40.989Z,95425.50
2017-06-03T09:29:08.557Z,95426.72
2017-06-03T09:31:37.256Z,95424.73
2017-06-03T09:34:04.792Z,95425.80
2017-06-03T09:36:32.347Z,95421.33
2017-06-03T09:38:59.994Z,95425.37
2017-06-03T09:41:27.535Z,95415.34
2017-06-03T09:43:55.080Z,95411.48
2017-06-03T09:46:22.673Z,95405.42
2017-06-03T09:48:53.027Z,95381.38
2017-06-03T09:51:20.803Z,95389.67
2017-06-03T09:53:48.398Z,95390.59
2017-06-03T09:56:15.959Z,95396.80
2017-06-03T09:58:43.518Z,95394.86
2017-06-03T10:01:13.807Z,95023.72
2017-06-03T10:03:41.455Z,95386.28
2017-06-03T10:06:08.997Z,95390.41
2017-06-03T10:08:36.558Z,95380.23
2017-06-03T10:11:04.105Z,95382.93
2017-06-03T10:13:31.639Z,95383.36
2017-06-03T10:15:59.238Z,95370.27
2017-06-03T10:18:26.775Z,95372.59
2017-06-03T10:21:26.049Z,95360.75
2017-06-03T10:23:53.585Z,95360.86
2017-06-03T10:26:21.118Z,95362.52
2017-06-03T10:28:48.690Z,95361.37
2017-06-03T10:31:16.290Z,95353.56
2017-06-03T10:33:43.827Z,95345.72
2017-06-03T10:36:11.370Z,95353.45
2017-06-03T10:38:38.973Z,95351.04
2017-06-03T10:41:06.540Z,95348.58
2017-06-03T10:43:34.104Z,95341.48
2017-06-03T10:46:01.680Z,95344.88
2017-06-03T10:48:29.208Z,95342.63
2017-06-03T10:50:56.831Z,95336.14
2017-06-03T10:53:24.412Z,95335.38
2017-06-03T10:55:51.952Z,95328.59
2017-06-03T10:58:19.529Z,95328.84
2017-06-03T11:00:47.170Z,95329.65
2017-06-03T11:03:14.706Z,95335.02
2017-06-03T11:05:42.290Z,95333.37
2017-06-03T11:08:09.860Z,95336.42
2017-06-03T11:10:37.598Z,95336.84
2017-06-03T11:13:05.133Z,95336.14
2017-06-03T11:15:32.705Z,95330.00
2017-06-03T11:18:00.257Z,95337.87
2017-06-03T11:20:27.860Z,95331.39
2017-06-03T11:22:55.434Z,95323.86
2017-06-03T11:54:28.887Z,95306.41
2017-06-03T11:56:56.461Z,95303.97
2017-06-03T11:59:23.988Z,95305.55
2017-06-03T12:01:51.557Z,95294.78
2017-06-03T12:04:19.111Z,95292.70
2017-06-03T12:06:46.642Z,95284.71
2017-06-03T12:09:14.217Z,95290.63
2017-06-03T12:11:41.760Z,95291.67
2017-06-03T12:14:09.298Z,95285.44
2017-06-03T12:16:37.017Z,95280.41
2017-06-03T12:19:04.551Z,95277.80
2017-06-03T12:21:32.483Z,95278.70
2017-06-03T12:24:00.058Z,95273.13
2017-06-03T12:26:27.953Z,95267.59
2017-06-03T12:28:55.500Z,95263.41
2017-06-03T12:31:23.072Z,95262.94
2017-06-03T12:33:50.610Z,95263.55
2017-06-03T12:36:18.139Z,95268.42
2017-06-03T12:38:45.717Z,95262.67
2017-06-03T12:41:13.256Z,95263.98
2017-06-03T12:43:40.803Z,95261.38
2017-06-03T12:46:08.377Z,95265.98
2017-06-03T12:48:35.912Z,95262.36
2017-06-03T12:51:03.463Z,95258.00
2017-06-03T12:53:31.911Z,95261.41
2017-06-03T12:55:59.452Z,95266.47
2017-06-03T12:58:26.984Z,95244.73
2017-06-03T13:00:54.574Z,95263.02
2017-06-03T13:03:22.137Z,95264.36
2017-06-03T13:05:49.675Z,95261.05
2017-06-03T13:08:17.282Z,95260.66
2017-06-03T13:10:44.811Z,95260.70
2017-06-03T13:13:12.351Z,95251.53
2017-06-03T13:15:39.953Z,95250.78
2017-06-03T13:18:07.473Z,95241.47
2017-06-03T13:20:35.019Z,95251.39
2017-06-03T13:23:02.602Z,95246.13
2017-06-03T13:25:30.196Z,95249.35
2017-06-03T13:27:57.743Z,95249.40
2017-06-03T13:30:25.519Z,95246.91
2017-06-03T13:32:54.442Z,95246.79
2017-06-03T13:35:24.181Z,95253.23
2017-06-03T13:37:53.638Z,95249.30
2017-06-03T13:40:22.845Z,95247.19
2017-06-03T13:42:51.222Z,95246.61
2017-06-03T13:45:20.633Z,95248.02
2017-06-03T13:47:49.947Z,95243.34
2017-06-03T13:50:19.511Z,95244.95
2017-06-03T13:52:49.023Z,95240.66
2017-06-03T13:55:18.479Z,95241.73
2017-06-03T13:57:46.057Z,95232.58
2017-06-03T14:00:13.856Z,95237.77
2017-06-03T14:02:43.161Z,95231.66
2017-06-03T14:05:16.173Z,95234.08
2017-06-03T14:07:43.797Z,95235.21
2017-06-03T14:10:11.350Z,95231.47
2017-06-03T14:12:39.485Z,95233.34
2017-06-03T14:15:08.070Z,95235.37
2017-06-03T14:17:36.462Z,95230.20
2017-06-03T14:20:04.089Z,95241.34
2017-06-03T14:22:31.618Z,95236.81
2017-06-03T14:24:59.170Z,95246.94
2017-06-03T14:27:26.759Z,95248.80
2017-06-03T14:29:54.305Z,95252.77
2017-06-03T14:32:21.885Z,95252.69
2017-06-03T14:34:49.490Z,95254.75
2017-06-03T14:37:17.773Z,95262.34
2017-06-03T14:39:45.341Z,95256.28
2017-06-03T14:42:12.871Z,95246.59
2017-06-03T14:44:40.410Z,95245.98
2017-06-03T14:47:08.014Z,95255.34
2017-06-03T14:49:35.546Z,95257.02
2017-06-03T14:52:03.102Z,95258.98
2017-06-03T14:54:30.707Z,95256.27
2017-06-03T14:56:58.453Z,95257.36
2017-06-03T14:59:26.616Z,95236.95
2017-06-03T15:01:55.096Z,95258.73
2017-06-03T15:04:22.962Z,95291.58
2017-06-03T15:06:50.543Z,95267.95
2017-06-03T15:09:18.133Z,95257.40
2017-06-03T15:11:46.336Z,95263.17
2017-06-03T15:14:14.115Z,95263.31
2017-06-03T15:16:41.928Z,95277.45
2017-06-03T15:19:09.475Z,95259.83
2017-06-03T15:21:37.009Z,95266.48
2017-06-03T15:24:04.647Z,95292.94
2017-06-03T15:26:34.691Z,95278.33
2017-06-03T15:29:03.132Z,95292.89
2017-06-03T15:31:31.166Z,95285.81
2017-06-03T15:33:59.546Z,95276.22
2017-06-03T15:36:27.102Z,95325.08
2017-06-03T15:38:54.699Z,95307.83
2017-06-03T15:41:22.279Z,95350.48
2017-06-03T15:43:50.237Z,95310.44
2017-06-03T15:46:18.439Z,95306.25
2017-06-03T15:48:46.366Z,95300.27
2017-06-03T15:51:14.533Z,95295.23
2017-06-03T15:53:42.248Z,95306.42
2017-06-03T15:56:10.215Z,95317.28
2017-06-03T15:58:37.858Z,95310.06
2017-06-03T16:01:05.646Z,95322.28
2017-06-03T16:03:33.190Z,95301.84
2017-06-03T16:06:00.810Z,95303.69
2017-06-03T16:08:28.578Z,95318.66
2017-06-03T16:10:56.127Z,95319.91
2017-06-03T16:13:23.773Z,95331.04
2017-06-03T16:15:51.351Z,95318.31
2017-06-03T16:18:19.047Z,95321.66
2017-06-03T16:20:46.725Z,95322.25
2017-06-03T16:23:14.908Z,95317.20
2017-06-03T16:25:42.828Z,95305.99
2017-06-03T16:28:11.085Z,95326.98
2017-06-03T16:30:38.668Z,95317.59
2017-06-03T16:33:06.222Z,95334.88
2017-06-03T16:35:33.845Z,95325.91
2017-06-03T16:38:01.420Z,95326.84
2017-06-03T16:40:29.237Z,95331.78
2017-06-03T16:42:56.859Z,95345.63
2017-06-03T16:45:25.709Z,95341.12
2017-06-03T16:47:53.267Z,95342.73
2017-06-03T16:50:21.765Z,95347.52
2017-06-03T16:52:52.235Z,95345.84
2017-06-03T16:55:20.002Z,95346.94
2017-06-03T16:57:47.821Z,95356.59
2017-06-03T17:00:16.254Z,95331.59
2017-06-03T17:02:43.803Z,95362.24
2017-06-03T17:05:11.351Z,95364.88
2017-06-03T17:07:38.974Z,95369.26
2017-06-03T17:10:06.888Z,95369.47
2017-06-03T17:12:34.431Z,95364.98
2017-06-03T17:15:02.009Z,95367.89
2017-06-03T17:17:29.666Z,95374.45
2017-06-03T17:20:00.824Z,95364.20
2017-06-03T17:22:30.782Z,95368.56
2017-06-03T17:25:00.481Z,95376.73
2017-06-03T17:27:31.398Z,95370.43
2017-06-03T17:30:02.874Z,95370.98
2017-06-03T17:32:37.336Z,95381.19
2017-06-03T17:35:07.984Z,95380.41
2017-06-03T17:37:39.666Z,95339.38
2017-06-03T17:40:09.439Z,95389.45
2017-06-03T17:42:39.428Z,95378.14
2017-06-03T17:45:09.359Z,95375.42
2017-06-03T17:47:39.736Z,95386.62
2017-06-03T17:50:09.549Z,95403.39
2017-06-03T17:52:46.289Z,95384.29
2017-06-03T17:55:16.135Z,95385.95
2017-06-03T17:57:46.605Z,95382.63
2017-06-03T18:00:17.778Z,95380.42
2017-06-03T18:02:49.026Z,95381.78
2017-06-03T18:05:19.184Z,95351.11
2017-06-03T18:07:48.717Z,95382.81
2017-06-03T18:10:18.213Z,95387.14
2017-06-03T18:12:45.915Z,95394.20
2017-06-03T18:15:13.463Z,95398.66
2017-06-03T18:17:40.997Z,95395.69
2017-06-03T18:20:08.562Z,95398.67
2017-06-03T18:22:36.516Z,95388.13
2017-06-03T18:25:19.001Z,95377.18
2017-06-03T18:27:46.535Z,95398.94
2017-06-03T18:30:14.928Z,95400.27
2017-06-03T18:32:42.523Z,95400.28
2017-06-03T18:35:10.065Z,95409.62
2017-06-03T18:37:37.704Z,95407.70
2017-06-03T18:40:05.240Z,95413.22
2017-06-03T18:42:32.809Z,95419.88
2017-06-03T18:45:00.416Z,95405.18
2017-06-03T18:47:27.963Z,95423.61
2017-06-03T18:49:55.515Z,95411.84
2017-06-03T18:52:23.099Z,95422.02
2017-06-03T18:54:50.701Z,95415.75
2017-06-03T18:57:18.242Z,95415.16
2017-06-03T18:59:45.845Z,95427.13
2017-06-03T19:02:13.430Z,95420.06
2017-06-03T19:04:40.969Z,95429.48
2017-06-03T19:07:08.509Z,95429.30
2017-06-03T19:09:36.085Z,95431.67
2017-06-03T19:12:03.650Z,95435.97
2017-06-03T19:14:31.187Z,95432.84
2017-06-03T19:16:58.765Z,95430.48
2017-06-03T19:19:26.297Z,95425.77
2017-06-03T19:21:53.852Z,95432.06
2017-06-03T19:24:21.446Z,95418.34
2017-06-03T19:26:48.995Z,95425.39
2017-06-03T19:29:16.531Z,95427.55
2017-06-03T19:31:44.171Z,95430.08
2017-06-03T19:34:11.735Z,95370.02
2017-06-03T19:36:39.275Z,95430.85
2017-06-03T19:39:06.862Z,95431.08
2017-06-03T19:41:34.758Z,95436.34
2017-06-03T19:44:02.297Z,95435.17
2017-06-03T19:46:29.938Z,95436.37
2017-06-03T19:48:57.483Z,95437.94
2017-06-03T19:51:25.026Z,95435.77
2017-06-03T19:53:52.646Z,95435.97
2017-06-03T19:56:20.211Z,95442.03
2017-06-03T19:58:47.894Z,95441.66
2017-06-03T20:01:15.513Z,95441.06
2017-06-03T20:03:43.067Z,95448.70
2017-06-03T20:06:10.656Z,95444.20
2017-06-03T20:08:38.229Z,95436.56
2017-06-03T20:11:06.082Z,95440.88
2017-06-03T20:13:33.652Z,95434.39
2017-06-03T20:16:01.251Z,95441.45
2017-06-03T20:18:28.797Z,95432.86
2017-06-03T20:20:56.402Z,95432.45
2017-06-03T20:23:23.989Z,95441.63
2017-06-03T20:25:51.535Z,95444.38
2017-06-03T20:28:20.498Z,95445.95
2017-06-03T20:30:48.105Z,95449.67
2017-06-03T20:33:15.661Z,95450.05
2017-06-03T20:35:43.210Z,95442.04
2017-06-03T20:38:10.796Z,95437.16
2017-06-03T20:40:38.343Z,95440.66
2017-06-03T20:43:05.885Z,95445.35
2017-06-03T20:45:34.127Z,95441.20
2017-06-03T20:48:01.930Z,95437.68
2017-06-03T20:50:30.869Z,95443.75
2017-06-03T20:52:58.797Z,95440.63
2017-06-03T20:55:26.576Z,95444.97
2017-06-03T20:57:55.820Z,95439.06
2017-06-03T21:00:23.806Z,95439.23
2017-06-03T21:02:51.878Z,95444.14
2017-06-03T21:05:19.971Z,95440.98
2017-06-03T21:07:48.156Z,95441.58
2017-06-03T21:10:15.795Z,95442.17
2017-06-03T21:12:43.340Z,95438.23
2017-06-03T21:15:10.946Z,95441.33
2017-06-03T21:17:38.514Z,95436.61
2017-06-03T21:20:06.055Z,95439.75
2017-06-03T21:22:33.650Z,95440.89
2017-06-03T21:25:01.189Z,95437.91
2017-06-03T21:27:28.733Z,95438.31
2017-06-03T21:29:56.327Z,95430.36
2017-06-03T21:32:23.934Z,95431.47
2017-06-03T21:34:51.474Z,95432.17
2017-06-03T21:37:19.018Z,95436.67
2017-06-03T21:39:46.622Z,95435.33
2017-06-03T21:42:14.158Z,95433.23
2017-06-03T21:44:41.704Z,95422.09
2017-06-03T21:47:09.277Z,95426.80
2017-06-03T21:49:36.813Z,95431.59
2017-06-03T21:52:04.355Z,95432.08
2017-06-03T21:54:31.954Z,95438.16
2017-06-03T21:56:59.523Z,95428.34
2017-06-03T21:59:27.060Z,95432.59
2017-06-03T22:01:54.633Z,95421.59
2017-06-03T22:04:22.182Z,95433.57
2017-06-03T22:06:49.742Z,95423.57
2017-06-03T22:09:17.403Z,95435.48
2017-06-03T22:11:44.941Z,95434.97
2017-06-03T22:14:12.478Z,95431.81
2017-06-03T22:16:40.053Z,95433.33
2017-06-03T22:19:07.598Z,95431.66
2017-06-03T22:21:35.141Z,95434.87
2017-06-03T22:24:02.725Z,95425.81
2017-06-03T22:26:30.293Z,95405.77
2017-06-03T22:28:57.902Z,95424.59
2017-06-03T22:31:25.489Z,95427.36
2017-06-03T22:33:53.045Z,95427.19
2017-06-03T22:36:20.597Z,95426.58
2017-06-03T22:38:48.173Z,95421.11
2017-06-03T22:41:15.716Z,95430.92
2017-06-03T22:43:43.294Z,95431.75
2017-06-03T22:46:10.869Z,95421.44
2017-06-03T22:48:38.429Z,95421.56
2017-06-03T22:51:05.978Z,95422.41
2017-06-03T22:53:33.569Z,95421.11
2017-06-03T22:56:01.447Z,95422.62
2017-06-03T22:58:28.986Z,95424.84
2017-06-03T23:00:56.566Z,95416.64
2017-06-03T23:03:24.109Z,95431.59
2017-06-03T23:05:51.655Z,95415.97
2017-06-03T23:08:19.234Z,95425.91
2017-06-03T23:10:46.779Z,95428.91
2017-06-03T23:13:14.325Z,95423.52
2017-06-03T23:15:41.897Z,95429.02
2017-06-03T23:18:09.428Z,95426.46
2017-06-03T23:20:36.971Z,95428.44
2017-06-03T23:23:04.545Z,95429.52
2017-06-03T23:25:32.150Z,95427.39
2017-06-03T23:27:59.992Z,95431.53
2017-06-03T23:30:28.548Z,95432.33
2017-06-03T23:32:57.001Z,95431.31
2017-06-03T23:35:26.168Z,95429.68
2017-06-03T23:37:55.806Z,95428.76
2017-06-03T23:40:25.206Z,95434.93
2017-06-03T23:42:53.816Z,95427.87
2017-06-03T23:45:21.438Z,95434.09
2017-06-03T23:47:48.977Z,95430.70
2017-06-03T23:50:16.520Z,95430.66
2017-06-03T23:52:44.117Z,95438.50
2017-06-03T23:55:11.668Z,95436.91
2017-06-03T23:57:39.207Z,95431.09
